الصفحة الرئيسية
METAR-TAF:

METAR-TAF

مطار :

مطار دبي الدولي

إمارة دبي, الإمارات العربية المتحدة

دائرة عرض: 25-15-10N, خط طول: 055-21-52E, ارتفاع: 8 متر

مراقبة الطقس الحالي

تاريخ ووقت الإصدار 59 دقيقة قبل الساعة 00:00UTC
ريح 5 عقدة من الجنوب/الجنوب الغربي, الاتجاه يتراوح بين الشرق/الجنوب الشرقي و الغرب/الجنوب الغربي
درجة الحرارة 31°درجة مئوية
الرطوبة 75%
ضغط 999 hPa
الرؤية: 8000 متر

METAR: OMDB 240000Z 21005KT 120V250 8000 NSC 31/26 Q0999 NOSIG

زمن: 04:59 (00:59 UTC)

توقعات

تاريخ ووقت الإصدار 2ساعات و 6 دقيقة قبل الساعة 22:53UTC
التوقعات صالحة من24 الساعة 00 UTC إلى 25 الساعة 06 UTC
ريح 5 عقدة من الجنوب/الجنوب الغربي
الرؤية: 8000 متر
أصبح
من 24 الساعة 05 UTC إلى 24 الساعة 07 UTC
ريح 12 عقدة من الغرب
أصبح
من 24 الساعة 18 UTC إلى 24 الساعة 20 UTC
ريح 5 عقدة من الجنوب
أصبح
من 25 الساعة 05 UTC إلى 25 الساعة 06 UTC
ريح 10 عقدة من الغرب

TAF: OMDB 232253Z 2400/2506 20005KT 8000 NSC BECMG 2405/2407 28012KT BECMG 2418/2420 18005KT BECMG 2505/2506 28010KT

أرصاد الطقس والتوقعات من أكثر من 4000 مطار (تقارير الطقس للمطار METAR والتنبؤ بالطقس بالمطارTAF).

المحطات المتاحة هي النقط الصفراء والحمراء على الخريطة.

حرك المؤشر فوق النقطة لمعرفة اسم المحطة.

ثم انقر لمعرفة أرصاد وتوقعات الطقس.

لتغيير الخارطة: اضغط على الأزرار الخضراء مع رمز الصليب الأسود للتكبير. على الزر الأخضر مع شرطة للتصغير، أو على الأسهم الخضراء للخرائط المجاورة.


METAR-TAF: